createdAt,value
2023-11-07T00:01:29.080Z,98115.96
2023-11-07T00:03:56.619Z,98117.75
2023-11-07T00:06:23.876Z,98116.91
2023-11-07T00:08:52.649Z,98113.10
2023-11-07T00:11:20.516Z,98117.10
2023-11-07T00:13:49.973Z,98112.02
2023-11-07T00:16:17.113Z,98115.41
2023-11-07T00:18:44.243Z,98122.75
2023-11-07T00:21:11.275Z,98119.91
2023-11-07T00:23:39.095Z,98112.06
2023-11-07T00:26:06.692Z,98114.33
2023-11-07T00:28:33.633Z,98117.15
2023-11-07T00:31:00.822Z,98120.36
2023-11-07T00:33:27.875Z,98118.31
2023-11-07T00:35:54.936Z,98122.52
2023-11-07T00:38:21.867Z,98123.21
2023-11-07T00:40:50.270Z,98129.80
2023-11-07T00:43:18.643Z,98134.91
2023-11-07T00:45:45.720Z,98134.73
2023-11-07T00:48:13.033Z,98131.52
2023-11-07T00:50:40.369Z,98132.12
2023-11-07T00:53:07.553Z,98131.05
2023-11-07T00:55:34.533Z,98134.10
2023-11-07T00:58:01.437Z,98129.33
2023-11-07T01:00:29.380Z,98129.52
2023-11-07T01:02:56.304Z,98131.61
2023-11-07T01:05:23.719Z,98131.80
2023-11-07T01:07:50.660Z,98131.32
2023-11-07T01:10:19.113Z,98130.35
2023-11-07T01:12:46.423Z,98136.96
2023-11-07T01:15:13.560Z,98134.09
2023-11-07T01:17:40.666Z,98137.54
2023-11-07T01:20:08.549Z,98137.63
2023-11-07T01:22:35.480Z,98141.57
2023-11-07T01:25:02.410Z,98141.39
2023-11-07T01:27:29.286Z,98148.89
2023-11-07T01:29:56.202Z,98146.22
2023-11-07T01:32:23.088Z,98146.45
2023-11-07T01:34:49.939Z,98147.34
2023-11-07T01:37:16.854Z,98151.66
2023-11-07T01:39:43.721Z,98159.17
2023-11-07T01:42:10.954Z,98158.23
2023-11-07T01:44:49.989Z,98155.04
2023-11-07T01:47:19.621Z,98156.75
2023-11-07T01:49:47.672Z,98155.52
2023-11-07T01:52:19.024Z,98156.45
2023-11-07T01:54:52.764Z,98148.47
2023-11-07T01:57:20.739Z,98150.33
2023-11-07T01:59:49.595Z,98146.84
2023-11-07T02:02:19.937Z,98145.17
2023-11-07T02:04:48.608Z,98148.73
2023-11-07T02:07:16.597Z,98148.10
2023-11-07T02:09:44.174Z,98151.27
2023-11-07T02:12:11.318Z,98150.71
2023-11-07T02:14:41.422Z,98150.81
2023-11-07T02:17:08.419Z,98152.98
2023-11-07T02:19:35.802Z,98160.23
2023-11-07T02:22:04.785Z,98162.17
2023-11-07T02:24:31.897Z,98161.10
2023-11-07T02:26:59.453Z,98157.86
2023-11-07T02:29:26.514Z,98156.10
2023-11-07T02:31:53.739Z,98158.44
2023-11-07T02:34:20.990Z,98160.55
2023-11-07T02:36:48.961Z,98164.23
2023-11-07T02:39:16.949Z,98168.11
2023-11-07T02:41:46.046Z,98166.18
2023-11-07T02:44:13.296Z,98170.98
2023-11-07T02:46:41.197Z,98169.95
2023-11-07T02:49:08.784Z,98167.78
2023-11-07T02:51:35.907Z,98166.38
2023-11-07T02:54:03.010Z,98168.16
2023-11-07T02:56:30.356Z,98169.76
2023-11-07T02:58:58.026Z,98171.22
2023-11-07T03:01:24.953Z,98170.02
2023-11-07T03:03:52.637Z,98172.85
2023-11-07T03:06:19.973Z,98172.69
2023-11-07T03:08:47.005Z,98177.17
2023-11-07T03:11:13.921Z,98178.80
2023-11-07T03:13:40.923Z,98179.77
2023-11-07T03:16:09.172Z,98181.42
2023-11-07T03:18:36.415Z,98179.98
2023-11-07T03:21:08.062Z,98179.56
2023-11-07T03:23:35.452Z,98185.70
2023-11-07T03:26:04.040Z,98187.18
2023-11-07T03:28:31.104Z,98191.99
2023-11-07T03:30:58.041Z,98196.96
2023-11-07T03:33:25.347Z,98197.41
2023-11-07T03:35:53.430Z,98201.93
2023-11-07T03:38:21.207Z,98205.84
2023-11-07T03:40:48.307Z,98204.11
2023-11-07T03:43:15.259Z,98200.21
2023-11-07T03:45:42.206Z,98193.96
2023-11-07T03:48:09.368Z,98196.56
2023-11-07T03:50:36.906Z,98194.70
2023-11-07T03:53:03.984Z,98190.92
2023-11-07T03:55:30.879Z,98193.73
2023-11-07T03:57:57.761Z,98192.92
2023-11-07T04:00:25.109Z,98191.19
2023-11-07T04:02:52.562Z,98189.20
2023-11-07T04:05:20.113Z,98188.04
2023-11-07T04:07:47.427Z,98189.21
2023-11-07T04:10:14.484Z,98188.17
2023-11-07T04:12:41.511Z,98183.60
2023-11-07T04:15:11.042Z,98187.04
2023-11-07T04:17:38.490Z,98187.55
2023-11-07T04:20:06.005Z,98187.35
2023-11-07T04:22:33.083Z,98185.25
2023-11-07T04:25:01.179Z,98185.63
2023-11-07T04:27:28.211Z,98184.91
2023-11-07T04:29:55.438Z,98182.36
2023-11-07T04:32:23.031Z,98185.87
2023-11-07T04:34:50.010Z,98187.35
2023-11-07T04:37:17.146Z,98193.36
2023-11-07T04:39:44.163Z,98196.96
2023-11-07T04:42:11.715Z,98209.21
2023-11-07T04:44:38.742Z,98207.33
2023-11-07T04:47:06.990Z,98209.04
2023-11-07T04:49:35.239Z,98210.00
2023-11-07T04:52:03.721Z,98215.49
2023-11-07T04:54:30.919Z,98216.39
2023-11-07T04:56:58.975Z,98212.86
2023-11-07T04:59:26.017Z,98209.85
2023-11-07T05:01:54.307Z,98212.79
2023-11-07T05:04:21.534Z,98216.49
2023-11-07T05:06:49.143Z,98214.48
2023-11-07T05:09:16.321Z,98212.55
2023-11-07T05:11:44.464Z,98207.17
2023-11-07T05:14:11.667Z,98216.98
2023-11-07T05:16:40.015Z,98222.52
2023-11-07T05:19:09.351Z,98224.42
2023-11-07T05:21:37.722Z,98221.23
2023-11-07T05:24:06.367Z,98221.94
2023-11-07T05:26:33.272Z,98221.35
2023-11-07T05:29:01.537Z,98222.60
2023-11-07T05:31:28.542Z,98221.23
2023-11-07T05:33:55.619Z,98228.34
2023-11-07T05:36:22.681Z,98230.90
2023-11-07T05:38:51.025Z,98239.55
2023-11-07T05:41:19.784Z,98240.38
2023-11-07T05:43:46.638Z,98243.38
2023-11-07T05:46:13.675Z,98246.21
2023-11-07T05:48:41.030Z,98250.11
2023-11-07T05:51:08.743Z,98252.90
2023-11-07T05:53:35.867Z,98259.08
2023-11-07T05:56:03.134Z,98255.73
2023-11-07T05:58:30.808Z,98259.52
2023-11-07T06:00:58.690Z,98252.14
2023-11-07T06:03:25.866Z,98254.30
2023-11-07T06:05:53.263Z,98260.50
2023-11-07T06:08:21.512Z,98263.21
2023-11-07T06:10:49.094Z,98272.73
2023-11-07T06:13:16.711Z,98280.21
2023-11-07T06:15:43.601Z,98278.81
2023-11-07T06:18:11.068Z,98281.92
2023-11-07T06:20:38.085Z,98290.27
2023-11-07T06:23:05.128Z,98305.20
2023-11-07T06:25:32.408Z,98309.24
2023-11-07T06:27:59.999Z,98306.98
2023-11-07T06:30:31.151Z,98310.91
2023-11-07T06:32:58.863Z,98312.96
2023-11-07T06:35:26.302Z,98318.99
2023-11-07T06:37:53.231Z,98315.36
2023-11-07T06:40:21.591Z,98319.70
2023-11-07T06:42:49.425Z,98321.81
2023-11-07T06:45:16.657Z,98320.30
2023-11-07T06:47:45.551Z,98318.62
2023-11-07T06:50:14.805Z,98319.46
2023-11-07T06:52:43.554Z,98318.30
2023-11-07T06:55:13.816Z,98326.14
2023-11-07T06:57:41.916Z,98333.27
2023-11-07T07:00:11.173Z,98335.21
2023-11-07T07:02:40.068Z,98331.96
2023-11-07T07:05:12.187Z,98335.94
2023-11-07T07:07:39.595Z,98340.25
2023-11-07T07:10:07.050Z,98341.05
2023-11-07T07:12:34.116Z,98340.33
2023-11-07T07:15:00.968Z,98346.39
2023-11-07T07:17:28.822Z,98350.88
2023-11-07T07:19:56.688Z,98347.90
2023-11-07T07:22:28.921Z,98354.63
2023-11-07T07:24:56.849Z,98357.02
2023-11-07T07:27:28.175Z,98356.14
2023-11-07T07:29:55.432Z,98358.27
2023-11-07T07:32:22.585Z,98354.16
2023-11-07T07:34:52.714Z,98359.74
2023-11-07T07:37:22.213Z,98364.23
2023-11-07T07:39:49.086Z,98369.73
2023-11-07T07:42:18.717Z,98370.90
2023-11-07T07:44:46.136Z,98367.56
2023-11-07T07:47:13.532Z,98365.04
2023-11-07T07:49:41.800Z,98372.54
2023-11-07T07:52:11.199Z,98367.98
2023-11-07T07:57:10.184Z,98371.59
2023-11-07T07:59:42.581Z,98372.86
2023-11-07T08:02:10.104Z,98379.27
2023-11-07T08:04:37.366Z,98378.34
2023-11-07T08:07:06.428Z,98379.36
2023-11-07T08:09:33.392Z,98384.16
2023-11-07T08:12:01.902Z,98381.40
2023-11-07T08:14:30.891Z,98372.08
2023-11-07T08:16:58.124Z,98372.38
2023-11-07T08:19:25.866Z,98370.36
2023-11-07T08:21:52.995Z,98371.48
2023-11-07T08:24:20.201Z,98371.61
2023-11-07T08:26:48.525Z,98367.61
2023-11-07T08:29:17.125Z,98369.69
2023-11-07T08:31:44.145Z,98367.05
2023-11-07T08:34:11.194Z,98370.79
2023-11-07T08:36:42.141Z,98376.86
2023-11-07T08:39:25.216Z,98375.61
2023-11-07T08:41:52.273Z,98375.58
2023-11-07T08:44:20.429Z,98373.55
2023-11-07T08:46:47.365Z,98373.30
2023-11-07T08:49:17.674Z,98372.56
2023-11-07T08:51:51.546Z,98369.49
2023-11-07T08:54:20.385Z,98371.31
2023-11-07T08:56:51.615Z,98370.77
2023-11-07T08:59:19.455Z,98377.08
2023-11-07T09:01:48.530Z,98382.67
2023-11-07T09:04:16.059Z,98381.33
2023-11-07T09:06:42.956Z,98383.35
2023-11-07T09:09:15.532Z,98380.92
2023-11-07T09:11:43.226Z,98383.87
2023-11-07T09:14:10.502Z,98384.70
2023-11-07T09:16:37.423Z,98389.27
2023-11-07T09:19:05.942Z,98388.64
2023-11-07T09:21:33.421Z,98387.43
2023-11-07T09:24:00.371Z,98393.64
2023-11-07T09:26:27.215Z,98394.29
2023-11-07T09:28:54.071Z,98392.83
2023-11-07T09:31:20.999Z,98391.02
2023-11-07T09:33:48.062Z,98390.27
2023-11-07T09:36:16.646Z,98388.95
2023-11-07T09:38:49.898Z,98386.61
2023-11-07T09:41:19.877Z,98393.37
2023-11-07T09:43:47.448Z,98391.13
2023-11-07T09:46:15.188Z,98398.06
2023-11-07T09:48:43.409Z,98395.16
2023-11-07T09:51:12.009Z,98397.89
2023-11-07T09:53:41.171Z,98396.21
2023-11-07T09:56:12.300Z,98393.09
2023-11-07T09:58:44.970Z,98389.73
2023-11-07T10:01:12.281Z,98392.64
2023-11-07T10:03:41.472Z,98386.00
2023-11-07T10:06:08.879Z,98384.35
2023-11-07T10:08:36.366Z,98378.64
2023-11-07T10:11:12.445Z,98378.95
2023-11-07T10:13:40.437Z,98380.44
2023-11-07T10:18:49.169Z,98388.95
2023-11-07T10:21:31.102Z,98384.34
2023-11-07T10:23:58.642Z,98381.47
2023-11-07T10:26:25.851Z,98378.36
2023-11-07T10:29:19.116Z,98376.02
2023-11-07T10:31:58.693Z,98375.63
2023-11-07T10:34:27.380Z,98375.33
2023-11-07T10:36:55.475Z,98376.00
2023-11-07T10:39:26.961Z,98367.26
2023-11-07T10:41:56.454Z,98374.48
2023-11-07T10:44:26.086Z,98370.29
2023-11-07T10:46:54.948Z,98369.64
2023-11-07T10:49:23.042Z,98365.10
2023-11-07T10:51:53.071Z,98359.42
2023-11-07T10:54:21.694Z,98363.73
2023-11-07T10:56:51.773Z,98363.03
2023-11-07T10:59:22.590Z,98357.89
2023-11-07T11:01:51.708Z,98353.33
2023-11-07T11:04:22.745Z,98352.52
2023-11-07T11:06:53.844Z,98351.64
2023-11-07T11:09:23.810Z,98355.40
2023-11-07T11:11:53.227Z,98353.48
2023-11-07T11:14:20.796Z,98353.86
2023-11-07T11:16:51.632Z,98349.21
2023-11-07T11:19:41.687Z,98348.19
2023-11-07T11:22:10.029Z,98344.98
2023-11-07T11:24:51.154Z,98346.52
2023-11-07T11:27:24.793Z,98339.30
2023-11-07T11:29:51.903Z,98341.02
2023-11-07T11:32:29.281Z,98336.05
2023-11-07T11:35:17.945Z,98334.30
2023-11-07T11:38:12.256Z,98330.83
2023-11-07T11:40:46.855Z,98330.64
2023-11-07T11:43:13.760Z,98327.95
2023-11-07T11:45:46.745Z,98328.25
2023-11-07T11:48:14.747Z,98319.21
2023-11-07T11:50:41.978Z,98320.64
2023-11-07T11:53:10.656Z,98322.81
2023-11-07T11:56:00.474Z,98323.52
2023-11-07T11:58:33.121Z,98331.34
2023-11-07T12:01:01.985Z,98326.94
2023-11-07T12:03:41.191Z,98327.70
2023-11-07T12:06:08.369Z,98328.37
2023-11-07T12:08:37.659Z,98324.14
2023-11-07T12:11:06.173Z,98323.46
2023-11-07T12:13:34.120Z,98320.14
2023-11-07T12:16:17.764Z,98320.86
2023-11-07T12:18:48.079Z,98317.54
2023-11-07T12:21:26.977Z,98317.75
2023-11-07T12:23:57.849Z,98313.52
2023-11-07T12:26:39.500Z,98306.16
2023-11-07T12:29:07.609Z,98306.11
2023-11-07T12:31:35.465Z,98308.59
2023-11-07T12:34:02.426Z,98302.73
2023-11-07T12:36:30.958Z,98298.80
2023-11-07T12:38:58.243Z,98304.80
2023-11-07T12:41:25.458Z,98301.28
2023-11-07T12:43:52.448Z,98304.21
2023-11-07T12:46:21.566Z,98300.31
2023-11-07T12:48:54.089Z,98303.13
2023-11-07T12:51:22.292Z,98304.45
2023-11-07T12:53:50.530Z,98304.11
2023-11-07T12:56:20.073Z,98301.69
2023-11-07T12:58:47.689Z,98305.48
2023-11-07T13:01:16.722Z,98306.80
2023-11-07T13:03:44.296Z,98310.54
2023-11-07T13:06:14.896Z,98315.40
2023-11-07T13:08:43.422Z,98314.77
2023-11-07T13:11:14.514Z,98315.23
2023-11-07T13:13:43.302Z,98313.84
2023-11-07T13:16:10.586Z,98320.83
2023-11-07T13:18:38.547Z,98321.73
2023-11-07T13:21:06.832Z,98318.20
2023-11-07T13:23:33.829Z,98315.73
2023-11-07T13:26:00.834Z,98320.44
2023-11-07T13:28:29.166Z,98322.59
2023-11-07T13:30:56.817Z,98324.36
2023-11-07T13:33:24.042Z,98322.63
2023-11-07T13:35:51.254Z,98322.18
2023-11-07T13:38:18.413Z,98319.88
2023-11-07T13:40:46.697Z,98318.59
2023-11-07T13:43:14.367Z,98318.58
2023-11-07T13:45:41.478Z,98319.06
2023-11-07T13:48:08.656Z,98319.73
2023-11-07T13:50:35.622Z,98319.17
2023-11-07T13:53:02.549Z,98318.59
2023-11-07T13:55:30.419Z,98315.11
2023-11-07T13:57:57.307Z,98315.96
2023-11-07T14:00:24.991Z,98319.36
2023-11-07T14:03:08.879Z,98317.74
2023-11-07T14:05:35.906Z,98318.36
2023-11-07T14:08:03.232Z,98311.70
2023-11-07T14:10:32.774Z,98304.98
2023-11-07T14:13:00.134Z,98310.60
2023-11-07T14:15:34.626Z,98312.13
2023-11-07T14:18:08.546Z,98310.16
2023-11-07T14:20:40.796Z,98313.92
2023-11-07T14:23:10.629Z,98311.33
2023-11-07T14:25:38.164Z,98316.33
2023-11-07T14:28:07.658Z,98314.83
2023-11-07T14:30:39.964Z,98317.09
2023-11-07T14:33:08.863Z,98312.73
2023-11-07T14:35:36.205Z,98314.69
2023-11-07T14:38:04.224Z,98311.98
2023-11-07T14:40:32.277Z,98309.89
2023-11-07T14:42:59.402Z,98302.34
2023-11-07T14:45:26.665Z,98303.25
2023-11-07T14:47:54.564Z,98300.08
2023-11-07T14:50:22.053Z,98300.97
2023-11-07T14:52:49.241Z,98296.96
2023-11-07T14:55:17.593Z,98295.78
2023-11-07T14:57:45.437Z,98294.01
2023-11-07T15:00:28.662Z,98298.34
2023-11-07T15:02:58.463Z,98298.73
2023-11-07T15:05:27.231Z,98292.45
2023-11-07T15:07:55.559Z,98295.09
2023-11-07T15:10:25.255Z,98295.52
2023-11-07T15:12:53.493Z,98298.41
2023-11-07T15:15:21.032Z,98298.27
2023-11-07T15:17:48.454Z,98296.33
2023-11-07T15:20:16.283Z,98302.41
2023-11-07T15:22:44.107Z,98305.42
2023-11-07T15:25:14.484Z,98306.09
2023-11-07T15:27:43.523Z,98307.48
2023-11-07T15:30:12.484Z,98312.54
2023-11-07T15:32:40.382Z,98312.17
2023-11-07T15:35:12.010Z,98312.90
2023-11-07T15:37:39.327Z,98312.95
2023-11-07T15:40:08.661Z,98311.19
2023-11-07T15:42:36.549Z,98308.44
2023-11-07T15:45:03.675Z,98309.43
2023-11-07T15:47:30.629Z,98310.69
2023-11-07T15:49:57.658Z,98309.73
2023-11-07T15:52:25.004Z,98312.66
2023-11-07T15:54:51.876Z,98316.83
2023-11-07T15:57:18.829Z,98319.08
2023-11-07T15:59:45.725Z,98319.52
2023-11-07T16:02:12.649Z,98320.16
2023-11-07T16:04:39.562Z,98317.55
2023-11-07T16:07:07.859Z,98320.34
2023-11-07T16:09:35.327Z,98322.21
2023-11-07T16:12:02.196Z,98319.15
2023-11-07T16:14:29.201Z,98316.14
2023-11-07T16:16:56.107Z,98315.91
2023-11-07T16:19:23.036Z,98313.77
2023-11-07T16:21:50.582Z,98312.83
2023-11-07T16:24:17.555Z,98310.41
2023-11-07T16:26:44.910Z,98307.91
2023-11-07T16:29:12.118Z,98308.60
2023-11-07T16:31:39.427Z,98305.69
2023-11-07T16:34:06.454Z,98303.55
2023-11-07T16:36:33.517Z,98301.14
2023-11-07T16:39:00.423Z,98303.35
2023-11-07T16:41:27.385Z,98306.80
2023-11-07T16:43:54.454Z,98302.52
2023-11-07T16:46:21.335Z,98306.10
2023-11-07T16:48:48.350Z,98305.77
2023-11-07T16:51:16.434Z,98309.61
2023-11-07T16:53:44.112Z,98312.30
2023-11-07T16:56:14.443Z,98309.41
2023-11-07T16:58:41.303Z,98312.09
2023-11-07T17:01:08.727Z,98312.31
2023-11-07T17:03:35.660Z,98307.83
2023-11-07T17:06:02.596Z,98308.86
2023-11-07T17:08:29.674Z,98307.66
2023-11-07T17:10:56.694Z,98314.92
2023-11-07T17:13:24.204Z,98315.63
2023-11-07T17:15:53.163Z,98315.55
2023-11-07T17:18:20.699Z,98323.17
2023-11-07T17:20:47.688Z,98326.36
2023-11-07T17:23:15.888Z,98328.34
2023-11-07T17:25:43.031Z,98330.52
2023-11-07T17:28:10.890Z,98327.59
2023-11-07T17:30:37.968Z,98331.96
2023-11-07T17:33:05.768Z,98326.13
2023-11-07T17:35:32.624Z,98324.55
2023-11-07T17:37:59.457Z,98319.81
2023-11-07T17:40:26.899Z,98320.23
2023-11-07T17:42:53.897Z,98324.71
2023-11-07T17:45:20.805Z,98327.86
2023-11-07T17:47:47.725Z,98333.34
2023-11-07T17:50:14.859Z,98332.48
2023-11-07T17:52:43.403Z,98330.31
2023-11-07T17:55:10.379Z,98328.40
2023-11-07T17:57:37.342Z,98332.04
2023-11-07T18:00:05.169Z,98328.06
2023-11-07T18:02:39.679Z,98328.38
2023-11-07T18:05:06.879Z,98322.64
2023-11-07T18:07:34.646Z,98321.20
2023-11-07T18:10:02.049Z,98319.73
2023-11-07T18:12:29.096Z,98317.41
2023-11-07T18:14:56.429Z,98317.74
2023-11-07T18:17:23.358Z,98314.44
2023-11-07T18:19:50.529Z,98309.14
2023-11-07T18:22:17.511Z,98311.13
2023-11-07T18:24:45.001Z,98308.74
2023-11-07T18:27:11.909Z,98309.84
2023-11-07T18:29:38.827Z,98314.00
2023-11-07T18:32:08.360Z,98312.92
2023-11-07T18:34:38.367Z,98312.18
2023-11-07T18:37:06.803Z,98312.47
2023-11-07T18:39:37.270Z,98309.21
2023-11-07T18:42:04.940Z,98310.23
2023-11-07T18:44:35.944Z,98318.05
2023-11-07T18:47:03.569Z,98314.98
2023-11-07T18:49:30.902Z,98310.56
2023-11-07T18:51:58.624Z,98311.58
2023-11-07T18:54:28.454Z,98316.70
2023-11-07T18:56:59.305Z,98318.05
2023-11-07T18:59:34.490Z,98319.36
2023-11-07T19:02:07.813Z,98324.30
2023-11-07T19:04:37.972Z,98323.92
2023-11-07T19:07:06.504Z,98324.64
2023-11-07T19:09:33.931Z,98330.80
2023-11-07T19:12:04.177Z,98330.73
2023-11-07T19:14:31.633Z,98328.16
2023-11-07T19:16:59.023Z,98327.50
2023-11-07T19:19:26.006Z,98322.36
2023-11-07T19:21:53.042Z,98324.48
2023-11-07T19:24:22.169Z,98327.77
2023-11-07T19:26:50.359Z,98330.05
2023-11-07T19:29:18.070Z,98329.30
2023-11-07T19:31:48.126Z,98333.09
2023-11-07T19:34:16.133Z,98321.13
2023-11-07T19:36:44.464Z,98324.27
2023-11-07T19:39:11.574Z,98328.37
2023-11-07T19:41:38.930Z,98325.05
2023-11-07T19:44:06.575Z,98328.03
2023-11-07T19:46:35.173Z,98330.58
2023-11-07T19:49:02.496Z,98327.73
2023-11-07T19:51:30.582Z,98330.90
2023-11-07T19:53:57.426Z,98332.64
2023-11-07T19:56:24.945Z,98333.63
2023-11-07T19:58:59.710Z,98331.55
2023-11-07T20:01:27.622Z,98333.14
2023-11-07T20:03:55.428Z,98329.07
2023-11-07T20:06:23.895Z,98326.91
2023-11-07T20:08:51.443Z,98326.86
2023-11-07T20:11:19.039Z,98328.69
2023-11-07T20:13:46.334Z,98328.62
2023-11-07T20:16:14.579Z,98331.23
2023-11-07T20:18:42.131Z,98328.38
2023-11-07T20:21:09.427Z,98328.52
2023-11-07T20:23:37.928Z,98334.39
2023-11-07T20:26:05.849Z,98331.45
2023-11-07T20:28:33.421Z,98326.56
2023-11-07T20:31:00.435Z,98327.17
2023-11-07T20:33:37.217Z,98328.27
2023-11-07T20:36:16.355Z,98325.76
2023-11-07T20:38:43.341Z,98324.98
2023-11-07T20:41:11.373Z,98326.09
2023-11-07T20:43:38.734Z,98324.64
2023-11-07T20:46:09.314Z,98322.62
2023-11-07T20:48:40.156Z,98320.31
2023-11-07T20:51:07.201Z,98316.30
2023-11-07T20:53:35.598Z,98313.61
2023-11-07T20:56:03.401Z,98313.95
2023-11-07T20:58:30.446Z,98306.39
2023-11-07T21:00:58.703Z,98305.41
2023-11-07T21:03:26.249Z,98304.23
2023-11-07T21:05:53.219Z,98304.83
2023-11-07T21:08:20.154Z,98307.20
2023-11-07T21:10:47.077Z,98304.33
2023-11-07T21:13:14.099Z,98300.10
2023-11-07T21:15:41.090Z,98298.17
2023-11-07T21:18:08.925Z,98297.67
2023-11-07T21:20:36.021Z,98300.81
2023-11-07T21:23:03.155Z,98302.30
2023-11-07T21:25:30.548Z,98298.35
2023-11-07T21:27:59.403Z,98297.92
2023-11-07T21:30:27.546Z,98298.55
2023-11-07T21:32:54.809Z,98294.40
2023-11-07T21:35:23.226Z,98291.61
2023-11-07T21:37:51.141Z,98288.08
2023-11-07T21:40:18.223Z,98287.06
2023-11-07T21:42:45.297Z,98286.43
2023-11-07T21:45:12.318Z,98285.83
2023-11-07T21:47:39.343Z,98283.98
2023-11-07T21:50:06.909Z,98285.45
2023-11-07T21:52:33.768Z,98288.65
2023-11-07T21:55:00.808Z,98284.44
2023-11-07T21:57:27.802Z,98289.92
2023-11-07T21:59:54.703Z,98288.08
2023-11-07T22:02:21.788Z,98288.92
2023-11-07T22:04:48.676Z,98289.27
2023-11-07T22:07:15.631Z,98292.41
2023-11-07T22:09:42.545Z,98294.61
2023-11-07T22:12:09.654Z,98293.61
2023-11-07T22:14:36.634Z,98297.20
2023-11-07T22:17:03.941Z,98300.59
2023-11-07T22:19:31.133Z,98308.30
2023-11-07T22:21:58.677Z,98308.11
2023-11-07T22:24:26.705Z,98312.17
2023-11-07T22:26:55.442Z,98308.91
2023-11-07T22:29:22.447Z,98310.82
2023-11-07T22:31:49.353Z,98308.64
2023-11-07T22:34:16.278Z,98307.92
2023-11-07T22:36:43.244Z,98305.08
2023-11-07T22:39:10.834Z,98300.14
2023-11-07T22:41:37.795Z,98295.90
2023-11-07T22:44:04.878Z,98290.65
2023-11-07T22:46:31.797Z,98289.16
2023-11-07T22:48:59.212Z,98286.27
2023-11-07T22:51:26.396Z,98280.02
2023-11-07T22:53:53.320Z,98279.73
2023-11-07T22:56:20.620Z,98276.25
2023-11-07T22:58:47.550Z,98275.71
2023-11-07T23:01:14.861Z,98272.69
2023-11-07T23:03:42.432Z,98272.49
2023-11-07T23:06:09.404Z,98267.98
2023-11-07T23:08:36.335Z,98265.34
2023-11-07T23:11:03.557Z,98265.14
2023-11-07T23:13:30.844Z,98266.63
2023-11-07T23:15:58.649Z,98265.83
2023-11-07T23:18:25.631Z,98267.42
2023-11-07T23:20:52.533Z,98268.41
2023-11-07T23:23:19.650Z,98270.98
2023-11-07T23:25:47.185Z,98270.00
2023-11-07T23:28:14.594Z,98270.27
2023-11-07T23:30:41.808Z,98265.98
2023-11-07T23:33:08.929Z,98261.23
2023-11-07T23:35:35.866Z,98265.67
2023-11-07T23:38:02.769Z,98259.55
2023-11-07T23:40:30.326Z,98257.70
2023-11-07T23:42:58.791Z,98257.16
2023-11-07T23:45:25.803Z,98259.58
2023-11-07T23:47:52.760Z,98255.86
2023-11-07T23:50:20.593Z,98251.80
2023-11-07T23:52:48.157Z,98244.79
2023-11-07T23:55:15.046Z,98244.41
2023-11-07T23:57:42.302Z,98245.52
